Time;durP1;ratioP1;P1;durP2;ratioP2;P2;SDS_P1;SDS_P2;PMS_P1;PMS_P2;Temp;Humidity;BMP_temperature;BMP_pressure;BME280_temperature;BME280_humidity;BME280_pressure;Samples;Min_cycle;Max_cycle;Signal;HPM_P1;HPM_P2
2023/12/05 00:00:05;;;;;;;0.20;0.20;;;17.10;63.60;;;;;;4950522;28;20047;-83
2023/12/05 00:02:30;;;;;;;0.38;0.25;;;17.10;63.30;;;;;;4966362;28;20051;-84
2023/12/05 00:04:56;;;;;;;0.30;0.20;;;17.10;63.30;;;;;;4967966;28;20401;-83
2023/12/05 00:07:23;;;;;;;0.60;0.40;;;17.10;63.60;;;;;;4966751;28;20050;-84
2023/12/05 00:09:49;;;;;;;0.40;0.30;;;17.10;63.70;;;;;;4962948;28;20030;-83
2023/12/05 00:12:15;;;;;;;0.20;0.20;;;17.10;63.50;;;;;;4966816;28;20473;-84
2023/12/05 00:14:40;;;;;;;0.30;0.30;;;17.10;63.50;;;;;;4964601;28;20035;-83
2023/12/05 00:17:06;;;;;;;0.15;0.10;;;17.10;63.40;;;;;;4966034;28;20042;-80
2023/12/05 00:19:32;;;;;;;0.30;0.20;;;17.10;63.70;;;;;;4949444;28;20134;-79
2023/12/05 00:21:57;;;;;;;0.75;0.10;;;17.10;63.40;;;;;;4961973;28;20042;-80
2023/12/05 00:24:23;;;;;;;0.63;0.47;;;17.10;63.70;;;;;;4960162;28;20047;-79
2023/12/05 00:26:49;;;;;;;0.20;0.10;;;17.10;63.60;;;;;;4965144;28;20055;-79
2023/12/05 00:29:14;;;;;;;0.30;0.20;;;17.10;63.60;;;;;;4966614;28;20039;-79
2023/12/05 00:31:40;;;;;;;0.20;0.20;;;17.00;63.50;;;;;;4964694;28;20039;-80
2023/12/05 00:34:05;;;;;;;0.30;0.30;;;17.00;63.50;;;;;;4964851;28;20054;-79
2023/12/05 00:36:31;;;;;;;0.10;0.10;;;17.00;63.50;;;;;;4966717;28;20055;-79
2023/12/05 00:38:57;;;;;;;0.10;0.10;;;17.10;63.30;;;;;;4967358;28;20105;-79
2023/12/05 00:41:24;;;;;;;0.20;0.20;;;17.10;63.30;;;;;;4969707;28;20093;-79
2023/12/05 00:43:51;;;;;;;0.10;0.10;;;17.10;63.60;;;;;;4970922;28;20046;-80
2023/12/05 00:46:16;;;;;;;0.57;0.30;;;17.00;63.40;;;;;;4967952;28;20072;-79
2023/12/05 00:48:42;;;;;;;0.30;0.20;;;17.00;63.20;;;;;;4966820;28;20702;-79
2023/12/05 00:51:08;;;;;;;0.20;0.10;;;17.00;63.20;;;;;;4969145;28;20043;-80
2023/12/05 00:53:34;;;;;;;0.57;0.20;;;17.00;63.40;;;;;;4969402;28;20489;-79
2023/12/05 00:55:59;;;;;;;0.35;0.20;;;17.00;63.60;;;;;;4971415;28;20408;-80
2023/12/05 00:58:25;;;;;;;0.10;0.10;;;17.00;63.70;;;;;;4968505;28;20101;-79
2023/12/05 01:00:50;;;;;;;0.32;0.20;;;17.00;63.40;;;;;;4968174;28;20051;-80
2023/12/05 01:03:16;;;;;;;0.22;0.10;;;17.00;63.60;;;;;;4967646;28;20051;-79
2023/12/05 01:05:41;;;;;;;0.20;0.20;;;17.00;63.70;;;;;;4966140;28;20398;-79
2023/12/05 01:08:07;;;;;;;1.27;0.50;;;17.00;63.60;;;;;;4935563;28;20045;-79
2023/12/05 01:10:32;;;;;;;0.22;0.20;;;17.00;63.50;;;;;;4965293;28;20039;-79
2023/12/05 01:12:58;;;;;;;0.10;0.10;;;17.00;63.40;;;;;;4964303;28;20041;-80
2023/12/05 01:15:24;;;;;;;0.50;0.30;;;17.00;63.50;;;;;;4966558;28;20055;-80
2023/12/05 01:17:49;;;;;;;0.10;0.10;;;17.00;64.40;;;;;;4968223;28;20488;-79
2023/12/05 01:20:15;;;;;;;0.32;0.32;;;17.00;63.60;;;;;;4969710;28;20042;-79
2023/12/05 01:22:41;;;;;;;0.30;0.20;;;17.00;63.50;;;;;;4969060;28;20434;-79
2023/12/05 01:25:07;;;;;;;0.30;0.20;;;17.00;63.60;;;;;;4951527;28;20039;-80
2023/12/05 01:27:33;;;;;;;0.10;0.10;;;17.00;63.60;;;;;;4966833;28;20509;-80
2023/12/05 01:29:58;;;;;;;0.40;0.35;;;17.00;63.80;;;;;;4966818;28;20067;-80
2023/12/05 01:32:24;;;;;;;0.65;0.25;;;17.00;63.90;;;;;;4953786;28;20094;-79
2023/12/05 01:34:49;;;;;;;0.30;0.20;;;17.00;64.40;;;;;;4948312;28;20501;-79
2023/12/05 01:37:15;;;;;;;0.13;0.10;;;17.00;63.60;;;;;;4962147;28;20042;-79
2023/12/05 01:39:41;;;;;;;0.20;0.10;;;17.00;63.60;;;;;;4965806;28;20105;-79
2023/12/05 01:42:06;;;;;;;0.20;0.20;;;16.90;63.40;;;;;;4965467;28;20131;-80
2023/12/05 01:44:32;;;;;;;0.30;0.20;;;17.00;63.90;;;;;;4968609;28;20146;-79
2023/12/05 01:46:58;;;;;;;0.22;0.20;;;16.90;63.70;;;;;;4965582;28;20051;-79
2023/12/05 01:49:23;;;;;;;0.10;0.10;;;16.90;63.60;;;;;;4967303;28;20066;-79
2023/12/05 01:51:49;;;;;;;0.50;0.20;;;16.90;63.70;;;;;;4951404;28;20070;-79
2023/12/05 01:54:15;;;;;;;0.30;0.13;;;16.90;64.20;;;;;;4967648;28;20042;-80
2023/12/05 01:56:40;;;;;;;0.20;0.13;;;16.90;63.70;;;;;;4969171;28;20046;-79
2023/12/05 01:59:07;;;;;;;0.20;0.10;;;16.90;63.60;;;;;;4968510;28;20058;-79
2023/12/05 02:01:32;;;;;;;0.30;0.10;;;16.90;64.10;;;;;;4953176;28;20517;-79
2023/12/05 02:03:58;;;;;;;0.28;0.20;;;16.90;63.50;;;;;;4968573;28;20049;-79
2023/12/05 02:06:26;;;;;;;0.10;0.10;;;17.00;63.70;;;;;;4966865;28;20138;-79
2023/12/05 02:08:52;;;;;;;0.30;0.10;;;16.90;63.50;;;;;;4960594;28;20579;-79
2023/12/05 02:11:18;;;;;;;0.30;0.20;;;16.90;63.70;;;;;;4949186;28;20046;-79
2023/12/05 02:13:43;;;;;;;0.20;0.20;;;16.90;64.00;;;;;;4966490;28;20054;-79
2023/12/05 02:16:17;;;;;;;0.30;0.20;;;16.90;63.50;;;;;;4963309;28;20059;-79
2023/12/05 02:18:51;;;;;;;0.28;0.10;;;16.90;63.40;;;;;;4965587;28;20585;-80
2023/12/05 02:21:19;;;;;;;;;;;16.90;63.80;;;;;;4950671;28;20042;-79
2023/12/05 02:24:06;;;;;;;0.22;0.20;;;16.90;63.80;;;;;;4960747;28;20653;-79
2023/12/05 02:27:00;;;;;;;0.20;0.20;;;16.90;63.60;;;;;;4966482;28;20105;-80
2023/12/05 02:29:25;;;;;;;0.20;0.20;;;16.90;63.70;;;;;;4946262;28;20051;-79
2023/12/05 02:31:52;;;;;;;0.20;0.10;;;16.90;63.40;;;;;;4951616;28;20359;-79
2023/12/05 02:34:18;;;;;;;0.40;0.40;;;16.90;63.30;;;;;;4965232;28;20045;-79
2023/12/05 02:36:46;;;;;;;0.90;0.40;;;16.90;63.40;;;;;;4950198;28;20063;-80
2023/12/05 02:39:26;;;;;;;0.28;0.13;;;16.90;63.70;;;;;;4963432;28;20062;-79
2023/12/05 02:41:55;;;;;;;0.20;0.10;;;16.90;63.40;;;;;;4951647;28;20504;-79
2023/12/05 02:44:23;;;;;;;0.20;0.20;;;16.90;63.70;;;;;;4968386;28;20035;-79
2023/12/05 02:46:48;;;;;;;0.30;0.20;;;16.90;63.30;;;;;;4956282;28;20043;-79
2023/12/05 02:49:14;;;;;;;0.28;0.20;;;16.90;63.70;;;;;;4947346;28;20062;-79
2023/12/05 02:51:40;;;;;;;0.10;0.10;;;16.90;64.20;;;;;;4965198;28;20039;-79
2023/12/05 02:54:06;;;;;;;0.40;0.22;;;16.90;63.50;;;;;;4966421;28;20583;-79
2023/12/05 02:56:38;;;;;;;0.30;0.20;;;16.90;63.60;;;;;;4966443;28;20043;-79
2023/12/05 02:59:03;;;;;;;0.20;0.20;;;16.90;63.50;;;;;;4967167;28;20513;-80
2023/12/05 03:01:29;;;;;;;0.20;0.13;;;16.80;64.20;;;;;;4962913;28;20061;-79
2023/12/05 03:03:55;;;;;;;0.17;0.17;;;16.80;63.90;;;;;;4948956;28;20053;-79
2023/12/05 03:06:20;;;;;;;0.10;0.10;;;16.80;63.30;;;;;;4965086;28;20097;-80
2023/12/05 03:08:46;;;;;;;0.10;0.10;;;16.80;63.70;;;;;;4966163;28;20046;-79
2023/12/05 03:11:11;;;;;;;0.15;0.10;;;16.90;63.60;;;;;;4966908;28;20047;-79
2023/12/05 03:13:40;;;;;;;0.20;0.10;;;16.80;63.60;;;;;;4964428;28;20394;-79
2023/12/05 03:16:07;;;;;;;0.20;0.20;;;16.80;63.70;;;;;;4947346;28;20141;-79
2023/12/05 03:18:33;;;;;;;0.55;0.20;;;16.80;64.00;;;;;;4963698;28;20039;-79
2023/12/05 03:20:58;;;;;;;0.40;0.20;;;16.80;63.60;;;;;;4964622;28;20062;-79
2023/12/05 03:23:24;;;;;;;0.20;0.20;;;16.80;63.90;;;;;;4964605;28;20054;-79
2023/12/05 03:25:49;;;;;;;1.08;0.30;;;16.80;63.40;;;;;;4965484;28;20134;-79
2023/12/05 03:28:15;;;;;;;0.70;0.30;;;16.80;63.90;;;;;;4962377;28;20054;-80
2023/12/05 03:30:40;;;;;;;0.25;0.15;;;16.80;63.30;;;;;;4963895;28;20077;-79
2023/12/05 03:33:06;;;;;;;0.20;0.20;;;16.80;63.50;;;;;;4964042;28;20046;-80
2023/12/05 03:35:32;;;;;;;0.25;0.20;;;16.80;64.30;;;;;;4964743;28;20043;-79
2023/12/05 03:37:57;;;;;;;0.52;0.20;;;16.80;63.40;;;;;;4964860;28;20043;-79
2023/12/05 03:40:23;;;;;;;0.15;0.15;;;16.80;63.70;;;;;;4963474;28;20385;-79
2023/12/05 03:42:48;;;;;;;0.20;0.10;;;16.80;64.00;;;;;;4964314;28;20174;-79
2023/12/05 03:45:14;;;;;;;0.15;0.10;;;16.80;64.40;;;;;;4962881;28;20030;-80
2023/12/05 03:47:39;;;;;;;0.38;0.17;;;16.80;64.00;;;;;;4964991;28;20034;-79
2023/12/05 03:50:05;;;;;;;0.57;0.20;;;16.80;63.80;;;;;;4963634;28;20039;-83
2023/12/05 03:52:31;;;;;;;0.22;0.22;;;16.80;63.80;;;;;;4963470;28;20050;-79
2023/12/05 03:54:56;;;;;;;0.20;0.20;;;16.80;63.50;;;;;;4950931;28;20034;-79
2023/12/05 03:57:22;;;;;;;0.30;0.25;;;16.80;64.30;;;;;;4963065;28;20053;-79
2023/12/05 03:59:48;;;;;;;0.10;0.10;;;16.80;64.00;;;;;;4965484;28;20493;-79
2023/12/05 04:02:13;;;;;;;0.28;0.20;;;16.80;63.50;;;;;;4965110;28;20083;-80
2023/12/05 04:04:39;;;;;;;0.10;0.10;;;16.80;63.40;;;;;;4964745;28;20035;-79
2023/12/05 04:07:05;;;;;;;0.22;0.20;;;16.80;64.00;;;;;;4964084;28;20378;-79
2023/12/05 04:09:30;;;;;;;0.57;0.32;;;16.70;64.50;;;;;;4967085;28;20053;-79
2023/12/05 04:11:57;;;;;;;0.43;0.38;;;16.80;63.60;;;;;;4963823;28;20050;-79
2023/12/05 04:14:22;;;;;;;0.30;0.20;;;16.80;63.60;;;;;;4965686;28;20043;-79
2023/12/05 04:16:48;;;;;;;0.10;0.10;;;16.80;63.60;;;;;;4964037;28;20425;-79
2023/12/05 04:19:13;;;;;;;0.22;0.20;;;16.80;64.00;;;;;;4968193;28;20138;-80
2023/12/05 04:21:39;;;;;;;0.30;0.13;;;16.80;63.60;;;;;;4967762;28;20050;-79
2023/12/05 04:24:06;;;;;;;0.30;0.10;;;16.80;63.60;;;;;;4968433;28;20039;-79
2023/12/05 04:26:31;;;;;;;0.35;0.20;;;16.70;64.00;;;;;;4968955;28;20049;-79
2023/12/05 04:28:57;;;;;;;0.30;0.10;;;16.70;63.70;;;;;;4969475;28;20072;-79
2023/12/05 04:31:25;;;;;;;0.17;0.10;;;16.70;63.60;;;;;;4966800;28;20499;-79
2023/12/05 04:33:51;;;;;;;0.20;0.20;;;16.70;63.90;;;;;;4968533;28;20043;-79
2023/12/05 04:36:16;;;;;;;0.17;0.10;;;16.70;63.40;;;;;;4968069;28;20031;-79
2023/12/05 04:38:42;;;;;;;0.80;0.10;;;16.70;63.50;;;;;;4969010;28;20069;-79
2023/12/05 04:41:08;;;;;;;0.75;0.10;;;16.70;63.40;;;;;;4969995;28;20039;-78
2023/12/05 04:43:33;;;;;;;0.20;0.20;;;16.70;63.70;;;;;;4951415;28;20043;-79
2023/12/05 04:45:59;;;;;;;0.30;0.10;;;16.70;63.80;;;;;;4970280;28;20488;-79
2023/12/05 04:48:24;;;;;;;0.10;0.10;;;16.70;64.00;;;;;;4968742;28;20110;-80
2023/12/05 04:50:50;;;;;;;0.20;0.20;;;16.70;63.60;;;;;;4968118;28;20039;-79
2023/12/05 04:53:15;;;;;;;0.10;0.10;;;16.70;63.60;;;;;;4968853;28;20053;-79
2023/12/05 04:55:41;;;;;;;0.10;0.10;;;16.70;63.70;;;;;;4952613;28;20055;-79
2023/12/05 04:58:07;;;;;;;0.30;0.20;;;16.70;63.70;;;;;;4970543;28;20035;-79
2023/12/05 05:00:33;;;;;;;0.17;0.00;;;16.70;64.20;;;;;;4950674;28;20505;-79
2023/12/05 05:02:59;;;;;;;0.25;0.10;;;16.70;63.70;;;;;;4968881;28;20420;-79
2023/12/05 05:05:24;;;;;;;0.20;0.10;;;16.70;63.50;;;;;;4969329;28;20046;-79
2023/12/05 05:07:50;;;;;;;0.32;0.20;;;16.70;63.50;;;;;;4968675;28;20549;-79
2023/12/05 05:10:16;;;;;;;0.20;0.20;;;16.70;64.20;;;;;;4947802;28;20508;-79
2023/12/05 05:12:41;;;;;;;0.10;0.03;;;16.70;63.60;;;;;;4966234;28;20474;-79
2023/12/05 05:15:08;;;;;;;0.10;0.10;;;16.70;64.00;;;;;;4967208;28;20031;-79
2023/12/05 05:17:33;;;;;;;0.32;0.20;;;16.70;63.60;;;;;;4966400;28;20070;-79
2023/12/05 05:19:59;;;;;;;0.10;0.10;;;16.70;64.20;;;;;;4968447;28;20062;-79
2023/12/05 05:22:25;;;;;;;0.63;0.20;;;16.70;64.00;;;;;;4966755;28;20041;-78
2023/12/05 05:24:50;;;;;;;0.25;0.20;;;16.70;64.20;;;;;;4966465;28;20541;-79
2023/12/05 05:27:16;;;;;;;0.20;0.10;;;16.70;64.00;;;;;;4964956;28;20042;-80
2023/12/05 05:29:41;;;;;;;0.10;0.10;;;16.70;64.30;;;;;;4948098;28;20500;-79
2023/12/05 05:32:07;;;;;;;0.20;0.15;;;16.70;63.70;;;;;;4955152;28;20529;-79
2023/12/05 05:34:32;;;;;;;0.28;0.20;;;16.70;63.50;;;;;;4967655;28;20046;-79
2023/12/05 05:36:58;;;;;;;0.10;0.10;;;16.60;63.70;;;;;;4966389;28;20050;-79
2023/12/05 05:39:23;;;;;;;0.10;0.10;;;16.60;63.80;;;;;;4964523;28;20525;-79
2023/12/05 05:41:49;;;;;;;0.13;0.00;;;16.60;63.40;;;;;;4982400;28;20101;-79
2023/12/05 05:44:14;;;;;;;0.38;0.15;;;16.70;64.10;;;;;;4969542;28;20051;-79
2023/12/05 05:46:40;;;;;;;0.10;0.10;;;16.60;63.90;;;;;;4978128;28;20050;-79
2023/12/05 05:49:06;;;;;;;0.10;0.10;;;16.60;63.60;;;;;;4968540;28;20046;-79
2023/12/05 05:51:32;;;;;;;0.10;0.10;;;16.60;64.40;;;;;;4964489;28;20114;-79
2023/12/05 05:53:58;;;;;;;0.25;0.20;;;16.70;64.00;;;;;;4968411;28;20239;-79
2023/12/05 05:56:23;;;;;;;0.10;0.10;;;16.60;64.40;;;;;;4967282;28;20050;-79
2023/12/05 05:58:49;;;;;;;0.63;0.22;;;16.60;63.50;;;;;;4963814;28;20044;-79
2023/12/05 06:01:15;;;;;;;0.10;0.10;;;16.60;63.60;;;;;;4965976;28;20552;-79
2023/12/05 06:03:41;;;;;;;0.08;0.08;;;16.60;63.50;;;;;;4968134;28;20043;-79
2023/12/05 06:06:07;;;;;;;0.10;0.10;;;16.70;63.60;;;;;;4961237;28;20088;-79
2023/12/05 06:08:32;;;;;;;0.15;0.13;;;16.70;63.60;;;;;;4968619;28;20046;-79
2023/12/05 06:10:58;;;;;;;0.22;0.10;;;16.60;63.90;;;;;;4967293;28;20401;-79
2023/12/05 06:13:23;;;;;;;0.10;0.10;;;16.60;63.70;;;;;;4962537;28;20031;-79
2023/12/05 06:15:49;;;;;;;0.17;0.17;;;16.60;63.50;;;;;;4966478;28;20050;-79
2023/12/05 06:18:17;;;;;;;0.13;0.10;;;16.60;63.70;;;;;;4969642;28;20047;-89
2023/12/05 06:20:43;;;;;;;0.43;0.30;;;16.60;63.40;;;;;;4969376;28;20425;-90
2023/12/05 06:23:09;;;;;;;0.20;0.20;;;16.60;63.40;;;;;;4965788;28;20505;-90
2023/12/05 06:25:34;;;;;;;0.30;0.10;;;16.60;63.50;;;;;;4964946;28;20059;-90
2023/12/05 06:28:00;;;;;;;0.20;0.10;;;16.60;63.40;;;;;;4968878;28;20502;-90
2023/12/05 06:30:26;;;;;;;0.30;0.20;;;16.60;63.70;;;;;;4968807;28;20114;-90
2023/12/05 06:32:51;;;;;;;0.20;0.10;;;16.60;64.50;;;;;;4972833;28;20445;-90
2023/12/05 06:35:17;;;;;;;0.40;0.10;;;16.60;63.80;;;;;;4965292;28;20049;-89
2023/12/05 06:37:42;;;;;;;0.00;0.00;;;16.60;64.20;;;;;;4968894;28;20081;-90
2023/12/05 06:40:08;;;;;;;0.13;0.10;;;16.60;64.70;;;;;;4966259;28;20089;-89
2023/12/05 06:42:34;;;;;;;0.15;0.10;;;16.60;64.20;;;;;;4967854;28;20041;-90
2023/12/05 06:45:00;;;;;;;0.20;0.20;;;16.60;63.80;;;;;;4968283;28;20043;-90
2023/12/05 06:47:27;;;;;;;0.10;0.10;;;16.60;64.10;;;;;;4967707;28;20051;-90
2023/12/05 06:49:52;;;;;;;0.20;0.10;;;16.60;63.50;;;;;;4969193;28;20043;-90
2023/12/05 06:52:19;;;;;;;0.10;0.10;;;16.60;63.60;;;;;;4970366;28;20524;-90
2023/12/05 06:54:45;;;;;;;0.30;0.10;;;16.60;64.10;;;;;;4966133;28;20043;-90
2023/12/05 06:57:11;;;;;;;0.20;0.05;;;16.60;63.80;;;;;;4969726;28;20061;-90
2023/12/05 06:59:38;;;;;;;0.40;0.20;;;16.60;64.40;;;;;;4967338;28;20146;-90
2023/12/05 07:02:04;;;;;;;0.10;0.10;;;16.60;63.80;;;;;;4968186;28;20121;-90
2023/12/05 07:04:29;;;;;;;0.10;0.10;;;16.60;63.80;;;;;;4967479;28;20042;-90
2023/12/05 07:06:56;;;;;;;0.10;0.10;;;16.50;63.80;;;;;;4968182;28;20121;-90
2023/12/05 07:09:22;;;;;;;0.28;0.20;;;16.60;63.90;;;;;;4968177;28;20062;-90
2023/12/05 07:11:47;;;;;;;0.25;0.15;;;16.60;63.80;;;;;;4963125;28;20046;-89
2023/12/05 07:14:13;;;;;;;0.20;0.20;;;16.60;64.00;;;;;;4966450;28;20524;-90
2023/12/05 07:16:38;;;;;;;0.17;0.10;;;16.50;64.00;;;;;;4967830;28;20835;-90
2023/12/05 07:19:04;;;;;;;0.10;0.10;;;16.60;64.40;;;;;;4965896;28;20061;-90
2023/12/05 07:21:30;;;;;;;0.10;0.10;;;16.60;64.20;;;;;;4969321;28;20100;-89
2023/12/05 07:23:55;;;;;;;0.20;0.10;;;16.50;63.90;;;;;;4968829;28;20117;-90
2023/12/05 07:26:21;;;;;;;0.32;0.20;;;16.50;64.50;;;;;;4967214;28;20138;-90
2023/12/05 07:28:46;;;;;;;0.10;0.10;;;16.50;64.30;;;;;;4969329;28;20081;-92
2023/12/05 07:31:12;;;;;;;0.10;0.10;;;16.50;64.30;;;;;;4971176;28;20046;-90
2023/12/05 07:33:38;;;;;;;0.28;0.20;;;16.50;63.80;;;;;;4966135;28;20141;-89
2023/12/05 07:36:04;;;;;;;0.30;0.15;;;16.50;64.30;;;;;;4967724;28;20540;-90
2023/12/05 07:38:30;;;;;;;0.50;0.25;;;16.50;64.50;;;;;;4962781;28;20055;-90
2023/12/05 07:40:55;;;;;;;0.20;0.10;;;16.50;64.00;;;;;;4963815;28;20094;-89
2023/12/05 07:43:21;;;;;;;0.28;0.15;;;16.50;63.50;;;;;;4962587;28;20038;-90
2023/12/05 07:45:46;;;;;;;0.05;0.05;;;16.50;64.10;;;;;;4967453;28;20118;-90
2023/12/05 07:48:12;;;;;;;0.20;0.10;;;16.50;63.60;;;;;;4968080;28;20051;-90
2023/12/05 07:50:37;;;;;;;0.38;0.20;;;16.50;64.00;;;;;;4964711;28;20050;-89
2023/12/05 07:53:03;;;;;;;0.10;0.10;;;16.50;63.60;;;;;;4969818;28;20038;-90
2023/12/05 07:55:29;;;;;;;0.32;0.20;;;16.50;63.70;;;;;;4971687;28;20051;-90
2023/12/05 07:57:54;;;;;;;0.30;0.10;;;16.50;63.70;;;;;;4969520;28;20039;-90
2023/12/05 08:00:20;;;;;;;0.10;0.10;;;16.50;64.30;;;;;;4968246;28;20101;-81
2023/12/05 08:02:46;;;;;;;0.10;0.10;;;16.50;63.80;;;;;;4980738;28;20048;-90
2023/12/05 08:05:11;;;;;;;0.10;0.00;;;16.50;64.10;;;;;;4969088;28;20432;-90
2023/12/05 08:07:38;;;;;;;0.17;0.10;;;16.50;63.70;;;;;;4966044;28;20536;-90
2023/12/05 08:10:05;;;;;;;0.10;0.10;;;16.50;63.70;;;;;;4968325;28;20054;-90
2023/12/05 08:12:30;;;;;;;0.10;0.10;;;16.50;63.60;;;;;;4968161;28;20038;-90
2023/12/05 08:14:57;;;;;;;0.40;0.30;;;16.50;64.00;;;;;;4969131;28;20522;-90
2023/12/05 08:17:22;;;;;;;0.15;0.10;;;16.50;64.00;;;;;;4966673;28;20046;-89
2023/12/05 08:19:48;;;;;;;0.10;0.10;;;16.50;64.30;;;;;;4967272;28;20456;-91
2023/12/05 08:22:13;;;;;;;0.10;0.10;;;16.50;64.30;;;;;;4969894;28;20539;-90
2023/12/05 08:24:39;;;;;;;0.10;0.10;;;16.50;63.60;;;;;;4968854;28;20043;-90
2023/12/05 08:27:05;;;;;;;0.10;0.10;;;16.50;64.00;;;;;;4967714;28;20054;-90
2023/12/05 08:29:30;;;;;;;0.10;0.10;;;16.50;63.60;;;;;;4968026;28;20097;-90
2023/12/05 08:31:56;;;;;;;0.10;0.10;;;16.50;63.60;;;;;;4969226;28;20050;-90
2023/12/05 08:34:21;;;;;;;0.20;0.20;;;16.50;63.70;;;;;;4969100;28;20508;-89
2023/12/05 08:36:47;;;;;;;0.30;0.20;;;16.50;64.00;;;;;;4964507;28;20071;-90
2023/12/05 08:39:13;;;;;;;0.10;0.10;;;16.50;63.50;;;;;;4968307;28;20054;-90
2023/12/05 08:41:39;;;;;;;0.10;0.10;;;16.50;64.20;;;;;;4968134;28;20042;-89
2023/12/05 08:44:05;;;;;;;0.20;0.10;;;16.50;63.40;;;;;;4968757;28;20053;-90
2023/12/05 08:46:31;;;;;;;0.15;0.10;;;16.50;63.70;;;;;;4966026;28;20043;-89
2023/12/05 08:48:57;;;;;;;0.50;0.20;;;16.50;64.00;;;;;;4968176;28;20055;-90
2023/12/05 08:51:22;;;;;;;0.13;0.10;;;16.50;63.30;;;;;;4969441;28;20054;-89
2023/12/05 08:53:48;;;;;;;0.30;0.20;;;16.50;63.20;;;;;;4967971;28;20067;-90
2023/12/05 08:56:13;;;;;;;0.28;0.20;;;16.50;63.40;;;;;;4968149;28;20058;-90
2023/12/05 08:58:39;;;;;;;0.22;0.15;;;16.50;63.70;;;;;;4968104;28;20050;-89
2023/12/05 09:01:05;;;;;;;0.25;0.10;;;16.50;64.20;;;;;;4969696;28;20039;-90
2023/12/05 09:03:30;;;;;;;0.10;0.10;;;16.50;64.10;;;;;;4968345;28;20045;-89
2023/12/05 09:05:56;;;;;;;0.10;0.10;;;16.50;64.10;;;;;;4972927;28;20465;-89
2023/12/05 09:08:21;;;;;;;0.30;0.10;;;16.50;63.20;;;;;;4968835;28;20150;-90
2023/12/05 09:10:47;;;;;;;0.10;0.10;;;16.50;63.30;;;;;;4972468;28;20075;-90
2023/12/05 09:13:14;;;;;;;0.30;0.10;;;16.50;63.30;;;;;;4971418;28;20047;-90
2023/12/05 09:15:40;;;;;;;0.15;0.10;;;16.60;63.40;;;;;;4969760;28;20520;-90
2023/12/05 09:18:05;;;;;;;0.10;0.10;;;16.50;63.20;;;;;;4966568;28;20043;-90
2023/12/05 09:20:31;;;;;;;0.10;0.10;;;16.50;63.30;;;;;;4973165;28;20528;-89
2023/12/05 09:22:56;;;;;;;0.10;0.10;;;16.50;63.30;;;;;;4973506;28;20046;-89
2023/12/05 09:25:22;;;;;;;0.13;0.03;;;16.50;63.60;;;;;;4973020;28;20089;-90
2023/12/05 09:27:48;;;;;;;0.13;0.10;;;16.50;63.40;;;;;;4970195;28;20026;-90
2023/12/05 09:30:13;;;;;;;0.10;0.10;;;16.50;63.50;;;;;;4970703;28;20042;-89
2023/12/05 09:32:39;;;;;;;0.10;0.10;;;16.50;63.40;;;;;;4968375;28;20520;-89
2023/12/05 09:35:05;;;;;;;0.30;0.20;;;16.50;63.50;;;;;;4973824;28;20504;-89
2023/12/05 09:37:30;;;;;;;0.30;0.20;;;16.50;63.60;;;;;;4970850;28;20378;-89
2023/12/05 09:39:56;;;;;;;0.40;0.25;;;16.50;63.70;;;;;;4971797;28;20469;-90
2023/12/05 09:42:23;;;;;;;0.20;0.10;;;16.50;63.60;;;;;;4970022;28;20046;-89
2023/12/05 09:44:49;;;;;;;0.10;0.10;;;16.50;63.60;;;;;;4969959;28;20039;-90
2023/12/05 09:47:21;;;;;;;0.30;0.20;;;16.50;63.50;;;;;;4969799;28;20058;-89
2023/12/05 09:49:46;;;;;;;0.30;0.20;;;16.50;63.50;;;;;;4971508;28;20054;-90
2023/12/05 09:52:12;;;;;;;0.20;0.20;;;16.60;63.90;;;;;;4970217;28;20053;-89
2023/12/05 09:54:38;;;;;;;0.10;0.10;;;16.50;63.50;;;;;;4970830;28;20042;-90
2023/12/05 09:57:04;;;;;;;0.15;0.10;;;16.60;63.70;;;;;;4969816;28;20133;-89
2023/12/05 09:59:29;;;;;;;0.32;0.15;;;16.60;63.40;;;;;;4970995;28;20046;-89
2023/12/05 10:01:58;;;;;;;0.30;0.10;;;16.60;63.60;;;;;;4972499;28;20055;-90
2023/12/05 10:04:24;;;;;;;0.10;0.10;;;16.60;63.10;;;;;;4969673;28;20047;-88
2023/12/05 10:06:49;;;;;;;0.30;0.10;;;16.60;63.00;;;;;;4968564;28;20050;-90
2023/12/05 10:09:15;;;;;;;0.25;0.13;;;16.60;63.00;;;;;;4969283;28;20042;-89
2023/12/05 10:11:40;;;;;;;0.10;0.10;;;16.70;63.10;;;;;;4967971;28;20081;-89
2023/12/05 10:14:06;;;;;;;0.45;0.30;;;16.70;62.90;;;;;;4953844;28;20050;-89
2023/12/05 10:16:32;;;;;;;0.30;0.20;;;16.70;62.90;;;;;;4969313;28;20047;-90
2023/12/05 10:18:58;;;;;;;0.25;0.10;;;16.70;62.80;;;;;;4961642;28;20055;-90
2023/12/05 10:21:23;;;;;;;0.20;0.20;;;16.70;62.90;;;;;;4970371;28;20035;-90
2023/12/05 10:23:49;;;;;;;0.40;0.20;;;16.80;62.60;;;;;;4960970;28;20497;-89
2023/12/05 10:26:14;;;;;;;0.20;0.10;;;16.80;62.50;;;;;;4971353;28;20436;-90
2023/12/05 10:28:50;;;;;;;0.10;0.10;;;16.80;62.50;;;;;;4967937;28;20497;-90
2023/12/05 10:31:16;;;;;;;0.38;0.20;;;16.80;62.60;;;;;;4967684;28;20082;-90
2023/12/05 10:33:42;;;;;;;0.20;0.10;;;16.80;62.70;;;;;;4965307;28;20057;-89
2023/12/05 10:36:11;;;;;;;0.30;0.10;;;16.80;62.50;;;;;;4968247;28;20044;-89
2023/12/05 10:38:37;;;;;;;0.95;0.35;;;16.80;62.40;;;;;;4970049;28;20038;-89
2023/12/05 10:41:03;;;;;;;0.28;0.20;;;16.80;62.60;;;;;;4966741;28;20058;-90
2023/12/05 10:43:28;;;;;;;0.10;0.10;;;16.80;62.80;;;;;;4971193;28;20056;-89
2023/12/05 10:45:54;;;;;;;0.17;0.10;;;16.80;62.50;;;;;;4967840;28;20059;-89
2023/12/05 10:48:21;;;;;;;0.22;0.10;;;16.80;62.50;;;;;;4967396;28;20073;-89
2023/12/05 10:50:47;;;;;;;0.10;0.10;;;16.80;62.50;;;;;;4968016;28;20031;-89
2023/12/05 10:53:14;;;;;;;0.20;0.20;;;16.90;62.30;;;;;;4970878;28;20047;-90
2023/12/05 10:55:40;;;;;;;0.10;0.10;;;16.90;62.50;;;;;;4970345;28;20579;-89
2023/12/05 10:58:06;;;;;;;0.20;0.20;;;16.80;62.70;;;;;;4969911;28;20046;-89
2023/12/05 11:00:32;;;;;;;0.25;0.10;;;16.80;62.70;;;;;;4968847;28;20090;-89
2023/12/05 11:02:57;;;;;;;0.20;0.20;;;16.80;62.60;;;;;;4969182;28;20508;-89
2023/12/05 11:05:23;;;;;;;0.20;0.10;;;16.90;62.50;;;;;;4970471;28;20043;-89
2023/12/05 11:07:50;;;;;;;0.45;0.10;;;16.90;62.70;;;;;;4973911;28;20116;-90
2023/12/05 11:10:16;;;;;;;0.17;0.17;;;16.80;62.80;;;;;;4971739;28;20043;-89
2023/12/05 11:12:43;;;;;;;0.10;0.10;;;16.80;62.90;;;;;;4972626;28;20046;-89
2023/12/05 11:15:09;;;;;;;0.47;0.10;;;16.80;63.10;;;;;;4969223;28;20469;-89
2023/12/05 11:17:38;;;;;;;0.08;0.05;;;16.80;63.60;;;;;;4971383;28;20143;-89
2023/12/05 11:20:22;;;;;;;0.40;0.17;;;16.90;62.60;;;;;;4965452;28;20047;-90
2023/12/05 11:23:01;;;;;;;0.40;0.20;;;16.90;62.50;;;;;;4966348;28;20050;-89
2023/12/05 11:25:29;;;;;;;0.30;0.20;;;17.00;62.40;;;;;;4966667;28;20496;-90
2023/12/05 11:28:03;;;;;;;0.10;0.10;;;16.90;62.60;;;;;;4964846;28;20046;-89
2023/12/05 11:30:44;;;;;;;0.20;0.20;;;16.90;62.60;;;;;;4969580;28;20051;-90
2023/12/05 11:33:33;;;;;;;0.10;0.10;;;16.90;62.40;;;;;;4968770;28;20046;-90
2023/12/05 11:36:24;;;;;;;0.52;0.20;;;17.00;63.00;;;;;;4967223;28;20054;-90
2023/12/05 11:38:49;;;;;;;0.40;0.20;;;17.00;61.90;;;;;;4966997;28;20043;-90
2023/12/05 11:41:20;;;;;;;0.10;0.10;;;17.00;62.10;;;;;;4971095;28;20047;-90
2023/12/05 11:44:14;;;;;;;0.30;0.10;;;17.00;62.10;;;;;;4966956;28;20049;-90
2023/12/05 11:46:50;;;;;;;0.38;0.20;;;17.00;62.80;;;;;;4969421;28;20523;-89
2023/12/05 11:49:36;;;;;;;0.22;0.10;;;17.00;62.30;;;;;;4970162;28;20047;-90
2023/12/05 11:52:10;;;;;;;0.13;0.10;;;17.00;62.40;;;;;;4966601;28;20125;-90
2023/12/05 11:54:36;;;;;;;0.20;0.10;;;17.10;62.30;;;;;;4969174;28;20090;-89
2023/12/05 11:57:12;;;;;;;0.20;0.10;;;17.10;62.40;;;;;;4967846;28;20062;-89
2023/12/05 11:59:41;;;;;;;0.28;0.20;;;17.00;62.40;;;;;;4968920;28;20043;-89
2023/12/05 12:02:08;;;;;;;0.30;0.30;;;17.10;62.50;;;;;;4971142;28;20055;-89
2023/12/05 12:04:33;;;;;;;0.35;0.10;;;17.00;62.50;;;;;;4968973;28;20053;-90
2023/12/05 12:06:59;;;;;;;0.13;0.13;;;17.00;62.30;;;;;;4968838;28;20058;-89
2023/12/05 12:09:24;;;;;;;0.20;0.10;;;17.10;62.40;;;;;;4968082;28;20042;-90
2023/12/05 12:11:50;;;;;;;0.30;0.30;;;17.00;62.20;;;;;;4967740;28;20137;-89
2023/12/05 12:14:17;;;;;;;0.28;0.10;;;17.10;62.30;;;;;;4969382;28;20064;-90
2023/12/05 12:16:43;;;;;;;0.20;0.20;;;17.10;62.60;;;;;;4967316;28;20149;-89
2023/12/05 12:19:11;;;;;;;0.30;0.10;;;17.00;62.20;;;;;;4969371;28;20050;-89
2023/12/05 12:21:40;;;;;;;0.30;0.30;;;17.00;62.00;;;;;;4962562;28;20043;-89
2023/12/05 12:24:07;;;;;;;0.10;0.10;;;17.10;62.40;;;;;;4961652;28;20047;-89
2023/12/05 12:26:32;;;;;;;0.20;0.13;;;17.00;62.20;;;;;;4968040;28;20500;-89
2023/12/05 12:29:10;;;;;;;0.22;0.20;;;17.10;62.50;;;;;;4966931;28;20045;-89
2023/12/05 12:31:36;;;;;;;0.05;0.05;;;17.10;62.30;;;;;;4966627;28;20047;-80
2023/12/05 12:34:08;;;;;;;0.20;0.20;;;17.10;62.10;;;;;;4967953;28;20054;-89
2023/12/05 12:36:34;;;;;;;0.20;0.10;;;17.10;62.50;;;;;;4971145;28;20066;-89
2023/12/05 12:39:00;;;;;;;0.10;0.10;;;17.10;62.30;;;;;;4972316;28;20575;-89
2023/12/05 12:41:29;;;;;;;0.25;0.20;;;17.10;62.50;;;;;;4973305;28;20038;-89
2023/12/05 12:43:54;;;;;;;0.40;0.20;;;17.10;62.60;;;;;;4972872;28;20053;-89